TimeCST,TemperatureF,Dew PointF,Humidity,Sea Level PressureIn,VisibilityMPH,Wind Direction,Wind SpeedMPH,Gust SpeedMPH,PrecipitationIn,Events,Conditions,WindDirDegrees,DateUTC
12:15 AM,33.8,32.0,93,30.33,5.0,South,4.6,-,N/A,,Clear,170,2012-11-18 06:15:00
12:35 AM,33.8,32.0,93,30.33,5.0,South,4.6,-,N/A,,Clear,170,2012-11-18 06:35:00
12:55 AM,33.8,30.2,87,30.33,5.0,South,3.5,-,N/A,,Haze,170,2012-11-18 06:55:00
1:15 AM,33.8,30.2,87,30.33,5.0,South,3.5,-,N/A,,Haze,180,2012-11-18 07:15:00
1:35 AM,33.8,30.2,87,30.33,5.0,Calm,Calm,-,N/A,,Haze,0,2012-11-18 07:35:00
1:55 AM,33.8,30.2,87,30.33,5.0,SSE,3.5,-,N/A,,Haze,150,2012-11-18 07:55:00
2:15 AM,33.8,30.2,87,30.33,7.0,Calm,Calm,-,N/A,,Clear,0,2012-11-18 08:15:00
2:35 AM,33.8,30.2,87,30.33,7.0,South,3.5,-,N/A,,Clear,190,2012-11-18 08:35:00
2:55 AM,35.6,30.2,81,30.33,7.0,South,3.5,-,N/A,,Clear,190,2012-11-18 08:55:00
3:15 AM,33.8,30.2,87,30.33,7.0,South,4.6,-,N/A,,Clear,180,2012-11-18 09:15:00
3:35 AM,33.8,30.2,87,30.32,7.0,South,3.5,-,N/A,,Clear,180,2012-11-18 09:35:00
3:55 AM,33.8,30.2,87,30.32,7.0,South,4.6,-,N/A,,Clear,170,2012-11-18 09:55:00
4:15 AM,33.8,30.2,87,30.32,5.0,SSE,3.5,-,N/A,,Haze,160,2012-11-18 10:15:00
4:35 AM,33.8,30.2,87,30.31,5.0,SSE,4.6,-,N/A,,Haze,150,2012-11-18 10:35:00
4:55 AM,33.8,30.2,87,30.31,5.0,South,3.5,-,N/A,,Haze,170,2012-11-18 10:55:00
5:15 AM,33.8,30.2,87,30.31,5.0,SSE,3.5,-,N/A,,Haze,150,2012-11-18 11:15:00
5:35 AM,33.8,30.2,87,30.31,5.0,SSE,4.6,-,N/A,,Haze,160,2012-11-18 11:35:00
5:55 AM,33.8,30.2,87,30.31,5.0,South,4.6,-,N/A,,Haze,170,2012-11-18 11:55:00
6:15 AM,33.8,30.2,87,30.30,5.0,SSE,4.6,-,N/A,,Haze,160,2012-11-18 12:15:00
6:35 AM,33.8,30.2,87,30.30,5.0,SSE,3.5,-,N/A,,Haze,150,2012-11-18 12:35:00
6:55 AM,32.0,30.2,93,30.30,4.0,SSE,4.6,-,N/A,,Clear,160,2012-11-18 12:55:00
7:15 AM,32.0,30.2,93,30.29,4.0,SSE,4.6,-,N/A,,Clear,160,2012-11-18 13:15:00
7:35 AM,33.8,30.2,87,30.29,4.0,SSE,4.6,-,N/A,,Clear,160,2012-11-18 13:35:00
7:55 AM,33.8,30.2,87,30.30,4.0,South,5.8,-,N/A,,Haze,170,2012-11-18 13:55:00
8:15 AM,35.6,30.2,81,30.29,4.0,South,5.8,-,N/A,,Haze,170,2012-11-18 14:15:00
8:35 AM,35.6,30.2,81,30.28,4.0,South,5.8,-,N/A,,Haze,170,2012-11-18 14:35:00
8:55 AM,37.4,32.0,81,30.28,5.0,South,5.8,-,N/A,,Haze,180,2012-11-18 14:55:00
9:15 AM,37.4,32.0,81,30.28,5.0,SSE,5.8,-,N/A,,Haze,160,2012-11-18 15:15:00
9:35 AM,37.4,32.0,81,30.28,7.0,SSE,3.5,-,N/A,,Mostly Cloudy,160,2012-11-18 15:35:00
9:55 AM,41.0,32.0,70,30.28,7.0,SSE,4.6,-,N/A,,Overcast,160,2012-11-18 15:55:00
10:15 AM,42.8,32.0,66,30.28,7.0,SSE,6.9,-,N/A,,Scattered Clouds,160,2012-11-18 16:15:00
10:35 AM,44.6,30.2,57,30.27,10.0,SSE,8.1,-,N/A,,Clear,160,2012-11-18 16:35:00
10:55 AM,46.4,30.2,53,30.27,10.0,SSE,9.2,-,N/A,,Clear,160,2012-11-18 16:55:00
11:15 AM,48.2,28.4,46,30.26,10.0,South,6.9,-,N/A,,Clear,170,2012-11-18 17:15:00
11:35 AM,50.0,28.4,43,30.25,10.0,SSE,8.1,-,N/A,,Clear,160,2012-11-18 17:35:00
11:55 AM,51.8,28.4,41,30.24,10.0,South,9.2,16.1,N/A,,Clear,170,2012-11-18 17:55:00
12:15 PM,51.8,28.4,41,30.24,10.0,SSE,9.2,-,N/A,,Clear,160,2012-11-18 18:15:00
12:35 PM,51.8,26.6,38,30.23,10.0,South,8.1,18.4,N/A,,Clear,170,2012-11-18 18:35:00
12:55 PM,51.8,26.6,38,30.23,10.0,South,10.4,17.3,N/A,,Clear,170,2012-11-18 18:55:00
1:15 PM,51.8,26.6,38,30.22,10.0,SSE,8.1,-,N/A,,Clear,160,2012-11-18 19:15:00
1:35 PM,51.8,26.6,38,30.22,10.0,SSE,9.2,-,N/A,,Clear,160,2012-11-18 19:35:00
1:55 PM,51.8,26.6,38,30.21,10.0,South,9.2,-,N/A,,Scattered Clouds,170,2012-11-18 19:55:00
2:15 PM,50.0,28.4,43,30.21,10.0,South,9.2,-,N/A,,Mostly Cloudy,170,2012-11-18 20:15:00
2:35 PM,51.8,28.4,41,30.21,10.0,SSE,6.9,16.1,N/A,,Overcast,160,2012-11-18 20:35:00
2:55 PM,50.0,28.4,43,30.20,10.0,SSE,8.1,-,N/A,,Overcast,160,2012-11-18 20:55:00
3:15 PM,50.0,28.4,43,30.20,10.0,South,10.4,17.3,N/A,,Overcast,170,2012-11-18 21:15:00
3:35 PM,50.0,28.4,43,30.20,10.0,South,11.5,18.4,N/A,,Scattered Clouds,170,2012-11-18 21:35:00
3:55 PM,48.2,28.4,46,30.21,10.0,SSE,9.2,16.1,N/A,,Mostly Cloudy,160,2012-11-18 21:55:00
4:15 PM,46.4,28.4,50,30.21,10.0,South,8.1,-,N/A,,Scattered Clouds,170,2012-11-18 22:15:00
4:35 PM,46.4,30.2,53,30.21,10.0,SSE,6.9,-,N/A,,Mostly Cloudy,160,2012-11-18 22:35:00
4:55 PM,46.4,30.2,53,30.22,10.0,SSE,4.6,-,N/A,,Overcast,160,2012-11-18 22:55:00
5:15 PM,44.6,30.2,57,30.22,10.0,SSE,5.8,-,N/A,,Overcast,150,2012-11-18 23:15:00
5:35 PM,44.6,30.2,57,30.22,10.0,South,6.9,-,N/A,,Overcast,170,2012-11-18 23:35:00
5:55 PM,44.6,30.2,57,30.21,10.0,SSE,8.1,-,N/A,,Overcast,160,2012-11-18 23:55:00
6:15 PM,44.6,30.2,57,30.21,10.0,SSE,8.1,-,N/A,,Overcast,160,2012-11-19 00:15:00
6:35 PM,44.6,30.2,57,30.21,10.0,South,9.2,-,N/A,,Mostly Cloudy,170,2012-11-19 00:35:00
6:55 PM,44.6,30.2,57,30.21,10.0,South,8.1,-,N/A,,Scattered Clouds,170,2012-11-19 00:55:00
7:15 PM,44.6,30.2,57,30.21,10.0,South,8.1,-,N/A,,Scattered Clouds,170,2012-11-19 01:15:00
7:35 PM,44.6,30.2,57,30.21,10.0,South,6.9,-,N/A,,Mostly Cloudy,170,2012-11-19 01:35:00
7:55 PM,44.6,30.2,57,30.21,10.0,South,8.1,-,N/A,,Overcast,170,2012-11-19 01:55:00
8:15 PM,44.6,28.4,53,30.20,10.0,South,8.1,-,N/A,,Mostly Cloudy,170,2012-11-19 02:15:00
8:35 PM,44.6,28.4,53,30.20,10.0,SSE,8.1,-,N/A,,Overcast,160,2012-11-19 02:35:00
8:55 PM,44.6,28.4,53,30.20,10.0,South,8.1,-,N/A,,Overcast,180,2012-11-19 02:55:00
9:15 PM,44.6,28.4,53,30.20,10.0,South,8.1,-,N/A,,Scattered Clouds,170,2012-11-19 03:15:00
9:35 PM,44.6,28.4,53,30.19,10.0,South,8.1,-,N/A,,Scattered Clouds,190,2012-11-19 03:35:00
9:55 PM,42.8,28.4,57,30.20,10.0,South,6.9,-,N/A,,Scattered Clouds,180,2012-11-19 03:55:00
10:15 PM,42.8,28.4,57,30.20,10.0,South,6.9,-,N/A,,Clear,190,2012-11-19 04:15:00
10:35 PM,42.8,28.4,57,30.19,10.0,South,6.9,-,N/A,,Clear,190,2012-11-19 04:35:00
10:55 PM,44.6,28.4,53,30.19,10.0,SSW,6.9,-,N/A,,Clear,200,2012-11-19 04:55:00
11:15 PM,42.8,28.4,57,30.20,10.0,South,8.1,-,N/A,,Clear,190,2012-11-19 05:15:00
11:35 PM,42.8,28.4,57,30.20,10.0,SSW,5.8,-,N/A,,Clear,200,2012-11-19 05:35:00
11:55 PM,41.0,28.4,61,30.20,10.0,South,5.8,-,N/A,,Scattered Clouds,190,2012-11-19 05:55:00